createdAt,value
2019-04-26T00:01:21.417Z,36.96
2019-04-26T00:03:54.768Z,37.02
2019-04-26T00:06:28.704Z,37.05
2019-04-26T00:09:02.036Z,37.00
2019-04-26T00:11:38.965Z,36.86
2019-04-26T00:14:12.404Z,37.02
2019-04-26T00:16:45.728Z,37.03
2019-04-26T00:19:19.069Z,37.05
2019-04-26T00:21:52.670Z,37.05
2019-04-26T00:24:28.478Z,37.04
2019-04-26T00:27:01.643Z,37.05
2019-04-26T00:29:35.065Z,37.16
2019-04-26T00:32:08.956Z,37.13
2019-04-26T00:34:42.384Z,37.03
2019-04-26T00:37:15.939Z,37.13
2019-04-26T00:39:49.401Z,37.20
2019-04-26T00:42:23.983Z,37.25
2019-04-26T00:44:57.546Z,36.74
2019-04-26T00:47:32.436Z,37.01
2019-04-26T00:50:06.667Z,37.01
2019-04-26T00:52:40.137Z,37.10
2019-04-26T00:55:14.319Z,37.09
2019-04-26T00:57:47.960Z,37.12
2019-04-26T01:00:21.603Z,37.11
2019-04-26T01:02:54.911Z,37.04
2019-04-26T01:05:28.272Z,37.13
2019-04-26T01:08:01.571Z,37.07
2019-04-26T01:10:34.734Z,37.11
2019-04-26T01:13:08.247Z,37.18
2019-04-26T01:15:41.598Z,37.19
2019-04-26T01:18:16.755Z,37.23
2019-04-26T01:20:50.238Z,37.23
2019-04-26T01:23:23.611Z,36.88
2019-04-26T01:26:17.936Z,37.04
2019-04-26T01:29:04.677Z,36.74
2019-04-26T01:31:41.247Z,37.00
2019-04-26T01:34:14.600Z,37.12
2019-04-26T01:36:47.918Z,37.19
2019-04-26T01:39:22.509Z,37.23
2019-04-26T01:41:56.129Z,37.26
2019-04-26T01:44:30.945Z,37.32
2019-04-26T01:47:04.258Z,37.12
2019-04-26T01:49:37.599Z,37.26
2019-04-26T01:52:10.911Z,37.23
2019-04-26T01:54:44.562Z,37.25
2019-04-26T01:57:17.861Z,36.91
2019-04-26T01:59:51.759Z,37.12
2019-04-26T02:02:25.686Z,37.26
2019-04-26T02:05:01.691Z,37.26
2019-04-26T02:07:35.283Z,36.86
2019-04-26T02:10:13.869Z,37.09
2019-04-26T02:12:47.784Z,37.25
2019-04-26T02:15:23.958Z,37.23
2019-04-26T02:17:57.259Z,37.28
2019-04-26T02:20:49.898Z,37.06
2019-04-26T02:23:23.637Z,37.21
2019-04-26T02:25:58.139Z,36.96
2019-04-26T02:28:32.404Z,37.15
2019-04-26T02:31:05.797Z,37.19
2019-04-26T02:33:39.139Z,37.25
2019-04-26T02:36:12.586Z,37.27
2019-04-26T02:38:45.940Z,37.33
2019-04-26T02:41:19.249Z,37.35
2019-04-26T02:43:53.362Z,37.41
2019-04-26T02:46:31.198Z,37.44
2019-04-26T02:49:04.999Z,37.43
2019-04-26T02:51:41.575Z,37.49
2019-04-26T02:54:27.884Z,37.48
2019-04-26T02:57:02.338Z,37.52
2019-04-26T02:59:40.575Z,37.12
2019-04-26T03:02:16.751Z,37.40
2019-04-26T03:04:50.417Z,37.49
2019-04-26T03:07:33.847Z,37.53
2019-04-26T03:10:07.530Z,37.51
2019-04-26T03:12:43.016Z,37.51
2019-04-26T03:15:18.525Z,37.51
2019-04-26T03:18:02.975Z,37.46
2019-04-26T03:20:40.024Z,37.49
2019-04-26T03:23:56.194Z,37.63
2019-04-26T03:26:31.605Z,37.61
2019-04-26T03:29:18.320Z,37.14
2019-04-26T03:32:16.739Z,37.42
2019-04-26T03:34:56.023Z,37.52
2019-04-26T03:37:34.560Z,37.28
2019-04-26T03:40:11.197Z,37.49
2019-04-26T03:43:08.233Z,37.58
2019-04-26T03:46:05.903Z,37.60
2019-04-26T03:49:01.981Z,37.67
2019-04-26T03:51:59.405Z,37.59
2019-04-26T03:54:32.775Z,37.71
2019-04-26T03:57:14.985Z,37.33
2019-04-26T03:59:54.520Z,37.57
2019-04-26T04:02:41.512Z,37.60
2019-04-26T04:05:21.327Z,37.31
2019-04-26T04:07:54.657Z,37.20
2019-04-26T04:10:41.940Z,37.14
2019-04-26T04:13:28.407Z,37.14
2019-04-26T04:16:01.779Z,37.22
2019-04-26T04:18:35.035Z,37.52
2019-04-26T04:21:26.907Z,37.70
2019-04-26T04:24:08.977Z,37.68
2019-04-26T04:27:02.109Z,37.02
2019-04-26T04:29:48.586Z,36.98
2019-04-26T04:32:24.699Z,36.16
2019-04-26T04:35:00.989Z,36.43
2019-04-26T04:37:56.478Z,36.48
2019-04-26T04:40:37.256Z,36.27
2019-04-26T04:43:29.074Z,36.34
2019-04-26T04:46:05.958Z,36.23
2019-04-26T04:49:03.928Z,36.22
2019-04-26T04:52:09.254Z,36.14
2019-04-26T04:55:06.387Z,36.01
2019-04-26T04:57:50.306Z,36.07
2019-04-26T05:00:40.532Z,35.67
2019-04-26T05:03:32.373Z,35.93
2019-04-26T05:06:21.401Z,35.90
2019-04-26T05:08:57.083Z,35.91
2019-04-26T05:11:39.176Z,36.01
2019-04-26T05:14:32.508Z,36.04
2019-04-26T05:17:33.443Z,36.01
2019-04-26T05:20:22.090Z,36.05
2019-04-26T05:23:10.588Z,36.06
2019-04-26T05:26:13.057Z,36.12
2019-04-26T05:29:08.046Z,36.05
2019-04-26T05:32:10.417Z,36.13
2019-04-26T05:34:52.927Z,35.61
2019-04-26T05:37:48.231Z,35.89
2019-04-26T05:40:40.582Z,35.22
2019-04-26T05:43:36.663Z,35.51
2019-04-26T05:46:28.310Z,35.73
2019-04-26T05:49:16.989Z,35.77
2019-04-26T05:52:02.398Z,35.81
2019-04-26T05:57:38.746Z,35.99
2019-04-26T06:00:17.636Z,35.20
2019-04-26T06:03:15.142Z,35.84
2019-04-26T06:05:58.572Z,35.82
2019-04-26T06:08:57.963Z,35.99
2019-04-26T06:11:46.463Z,36.05
2019-04-26T06:14:41.294Z,35.33
2019-04-26T06:17:33.718Z,35.69
2019-04-26T06:20:28.208Z,35.72
2019-04-26T06:23:19.920Z,35.98
2019-04-26T06:26:17.714Z,36.03
2019-04-26T06:29:03.394Z,35.19
2019-04-26T06:31:42.168Z,35.52
2019-04-26T06:34:18.207Z,36.06
2019-04-26T06:36:57.905Z,35.98
2019-04-26T06:39:37.259Z,36.01
2019-04-26T06:42:28.935Z,35.48
2019-04-26T06:45:11.576Z,35.90
2019-04-26T06:47:57.458Z,36.00
2019-04-26T06:50:46.435Z,35.93
2019-04-26T06:53:38.166Z,36.24
2019-04-26T06:56:34.301Z,35.78
2019-04-26T06:59:36.232Z,36.23
2019-04-26T07:02:19.981Z,36.40
2019-04-26T07:05:20.613Z,36.28
2019-04-26T07:08:21.203Z,36.32
2019-04-26T07:11:29.655Z,35.94
2019-04-26T07:14:14.475Z,36.55
2019-04-26T07:17:12.261Z,36.51
2019-04-26T07:20:07.771Z,36.36
2019-04-26T07:23:13.184Z,36.45
2019-04-26T07:26:06.269Z,35.98
2019-04-26T07:29:01.163Z,36.35
2019-04-26T07:31:53.300Z,36.61
2019-04-26T07:34:44.876Z,36.69
2019-04-26T07:37:39.816Z,36.62
2019-04-26T07:40:21.876Z,36.61
2019-04-26T07:43:10.557Z,36.66
2019-04-26T07:45:49.807Z,36.23
2019-04-26T07:48:50.571Z,36.34
2019-04-26T07:51:44.748Z,36.65
2019-04-26T07:54:54.414Z,36.71
2019-04-26T07:57:37.482Z,36.65
2019-04-26T08:00:20.769Z,36.51
2019-04-26T08:03:04.175Z,36.72
2019-04-26T08:05:57.167Z,35.96
2019-04-26T08:08:39.221Z,36.34
2019-04-26T08:11:21.051Z,36.88
2019-04-26T08:14:10.694Z,36.72
2019-04-26T08:16:59.460Z,36.87
2019-04-26T08:19:39.144Z,36.18
2019-04-26T08:22:20.443Z,36.42
2019-04-26T08:24:47.737Z,35.57
2019-04-26T08:27:24.180Z,36.14
2019-04-26T08:29:58.445Z,35.66
2019-04-26T08:32:35.658Z,36.06
2019-04-26T08:35:16.876Z,35.96
2019-04-26T08:37:45.069Z,36.01
2019-04-26T08:40:27.569Z,36.23
2019-04-26T08:42:57.359Z,36.21
2019-04-26T08:45:29.577Z,36.29
2019-04-26T08:48:03.146Z,36.32
2019-04-26T08:50:36.778Z,36.32
2019-04-26T08:53:11.789Z,36.06
2019-04-26T08:55:45.149Z,36.28
2019-04-26T08:58:18.885Z,36.36
2019-04-26T09:00:52.218Z,36.57
2019-04-26T09:03:25.549Z,36.17
2019-04-26T09:05:59.301Z,36.32
2019-04-26T09:08:33.632Z,36.44
2019-04-26T09:11:07.166Z,36.40
2019-04-26T09:13:42.535Z,36.00
2019-04-26T09:16:16.558Z,36.37
2019-04-26T09:18:54.139Z,35.90
2019-04-26T09:21:25.026Z,36.06
2019-04-26T09:23:58.417Z,36.13
2019-04-26T09:26:33.572Z,36.34
2019-04-26T09:29:07.219Z,36.42
2019-04-26T09:31:40.632Z,36.34
2019-04-26T09:34:14.002Z,36.35
2019-04-26T09:36:47.339Z,36.46
2019-04-26T09:39:20.691Z,36.48
2019-04-26T09:41:54.041Z,36.43
2019-04-26T09:44:27.333Z,36.50
2019-04-26T09:47:00.862Z,36.44
2019-04-26T09:49:37.404Z,36.46
2019-04-26T09:52:09.213Z,36.43
2019-04-26T09:54:42.560Z,36.41
2019-04-26T09:57:16.079Z,35.95
2019-04-26T09:59:52.017Z,36.39
2019-04-26T10:02:29.513Z,35.81
2019-04-26T10:05:02.674Z,36.17
2019-04-26T10:07:37.530Z,36.25
2019-04-26T10:10:22.390Z,36.27
2019-04-26T10:12:46.561Z,36.35
2019-04-26T10:15:22.469Z,36.46
2019-04-26T10:17:54.903Z,36.49
2019-04-26T10:20:28.278Z,36.44
2019-04-26T10:23:01.747Z,36.40
2019-04-26T10:25:35.186Z,36.48
2019-04-26T10:28:11.787Z,36.49
2019-04-26T10:30:43.959Z,36.50
2019-04-26T10:33:18.622Z,36.57
2019-04-26T10:35:52.637Z,36.44
2019-04-26T10:38:28.022Z,36.53
2019-04-26T10:41:01.408Z,35.89
2019-04-26T10:43:34.858Z,36.14
2019-04-26T10:46:08.165Z,36.29
2019-04-26T10:48:41.502Z,36.22
2019-04-26T10:51:14.814Z,36.38
2019-04-26T10:53:50.321Z,36.29
2019-04-26T10:56:24.268Z,36.39
2019-04-26T10:58:58.378Z,36.11
2019-04-26T11:01:31.695Z,36.19
2019-04-26T11:04:05.159Z,36.18
2019-04-26T11:06:38.479Z,36.25
2019-04-26T11:09:12.214Z,35.77
2019-04-26T11:11:45.505Z,35.98
2019-04-26T11:14:22.722Z,36.10
2019-04-26T11:16:53.935Z,36.11
2019-04-26T11:19:27.260Z,36.17
2019-04-26T11:22:00.832Z,36.16
2019-04-26T11:24:34.377Z,36.08
2019-04-26T11:27:09.711Z,36.03
2019-04-26T11:29:53.235Z,36.02
2019-04-26T11:32:18.349Z,36.02
2019-04-26T11:34:54.499Z,36.12
2019-04-26T11:37:26.822Z,36.03
2019-04-26T11:40:00.137Z,36.05
2019-04-26T11:42:33.436Z,35.99
2019-04-26T11:45:10.767Z,36.00
2019-04-26T11:47:55.522Z,36.02
2019-04-26T11:50:19.223Z,35.84
2019-04-26T11:52:52.589Z,35.76
2019-04-26T11:55:29.660Z,35.74
2019-04-26T11:58:01.296Z,35.81
2019-04-26T12:00:34.734Z,35.80
2019-04-26T12:03:08.069Z,35.71
2019-04-26T12:05:41.488Z,35.76
2019-04-26T12:08:14.812Z,35.87
2019-04-26T12:10:48.210Z,35.79
2019-04-26T12:13:24.983Z,35.70
2019-04-26T12:15:56.719Z,35.74
2019-04-26T12:18:30.139Z,35.60
2019-04-26T12:21:03.519Z,35.66
2019-04-26T12:23:36.809Z,35.57
2019-04-26T12:26:10.366Z,35.51
2019-04-26T12:28:43.698Z,35.48
2019-04-26T12:31:17.151Z,35.54
2019-04-26T12:33:50.490Z,35.51
2019-04-26T12:36:23.839Z,35.25
2019-04-26T12:38:58.194Z,35.25
2019-04-26T12:41:40.198Z,34.92
2019-04-26T12:44:07.900Z,35.10
2019-04-26T12:46:43.909Z,35.28
2019-04-26T12:49:20.294Z,35.16
2019-04-26T12:51:52.305Z,35.14
2019-04-26T12:54:25.613Z,35.17
2019-04-26T12:57:01.624Z,35.10
2019-04-26T12:59:44.033Z,35.12
2019-04-26T13:02:10.225Z,35.08
2019-04-26T13:04:44.524Z,35.04
2019-04-26T13:07:24.018Z,34.53
2019-04-26T13:09:57.209Z,34.71
2019-04-26T13:12:29.851Z,34.83
2019-04-26T13:15:39.339Z,34.61
2019-04-26T13:18:14.240Z,34.60
2019-04-26T13:20:47.537Z,34.14
2019-04-26T13:23:20.926Z,34.16
2019-04-26T13:25:55.459Z,34.08
2019-04-26T13:28:29.437Z,34.00
2019-04-26T13:31:02.871Z,33.52
2019-04-26T13:33:37.862Z,33.46
2019-04-26T13:36:11.299Z,33.39
2019-04-26T13:38:45.144Z,33.15
2019-04-26T13:41:18.709Z,33.08
2019-04-26T13:43:52.050Z,32.99
2019-04-26T13:46:26.454Z,33.28
2019-04-26T13:48:59.971Z,33.51
2019-04-26T13:51:33.276Z,33.81
2019-04-26T13:54:07.893Z,33.87
2019-04-26T13:56:41.225Z,33.97
2019-04-26T13:59:14.813Z,32.98
2019-04-26T14:01:48.124Z,33.24
2019-04-26T14:04:21.719Z,32.55
2019-04-26T14:06:55.383Z,32.62
2019-04-26T14:09:28.745Z,32.79
2019-04-26T14:12:10.893Z,32.88
2019-04-26T14:14:37.261Z,33.20
2019-04-26T14:17:10.637Z,33.56
2019-04-26T14:19:45.392Z,33.78
2019-04-26T14:22:18.979Z,33.99
2019-04-26T14:24:53.052Z,34.03
2019-04-26T14:27:27.417Z,34.09
2019-04-26T14:30:02.539Z,34.11
2019-04-26T14:32:36.955Z,33.72
2019-04-26T14:35:11.328Z,33.92
2019-04-26T14:37:49.930Z,33.96
2019-04-26T14:40:23.093Z,34.07
2019-04-26T14:43:06.669Z,34.12
2019-04-26T14:45:31.657Z,34.13
2019-04-26T14:48:05.502Z,34.17
2019-04-26T14:50:38.959Z,33.90
2019-04-26T14:53:12.334Z,34.01
2019-04-26T14:55:45.701Z,34.10
2019-04-26T14:58:23.859Z,34.15
2019-04-26T15:00:58.410Z,34.16
2019-04-26T15:03:30.782Z,34.09
2019-04-26T15:06:04.312Z,34.08
2019-04-26T15:08:40.618Z,34.13
2019-04-26T15:11:12.924Z,33.61
2019-04-26T15:13:46.411Z,33.85
2019-04-26T15:16:22.192Z,33.96
2019-04-26T15:18:55.946Z,33.95
2019-04-26T15:21:33.052Z,34.00
2019-04-26T15:24:05.102Z,33.82
2019-04-26T15:26:38.627Z,33.95
2019-04-26T15:29:12.634Z,33.89
2019-04-26T15:31:46.156Z,33.95
2019-04-26T15:34:23.616Z,33.98
2019-04-26T15:36:54.658Z,33.96
2019-04-26T15:39:28.014Z,33.94
2019-04-26T15:42:03.082Z,33.96
2019-04-26T15:44:36.585Z,34.05
2019-04-26T15:47:09.923Z,33.99
2019-04-26T15:49:43.269Z,34.02
2019-04-26T15:52:16.586Z,34.08
2019-04-26T15:54:52.905Z,34.07
2019-04-26T15:57:31.185Z,34.16
2019-04-26T16:00:00.002Z,34.02
2019-04-26T16:02:35.032Z,33.95
2019-04-26T16:05:08.370Z,34.03
2019-04-26T16:07:42.984Z,33.99
2019-04-26T16:10:16.332Z,34.01
2019-04-26T16:12:49.679Z,34.07
2019-04-26T16:15:23.365Z,34.03
2019-04-26T16:17:56.876Z,33.94
2019-04-26T16:20:31.694Z,34.03
2019-04-26T16:23:07.299Z,34.01
2019-04-26T16:25:40.480Z,33.94
2019-04-26T16:28:13.972Z,33.97
2019-04-26T16:30:47.299Z,34.04
2019-04-26T16:33:20.707Z,34.01
2019-04-26T16:35:57.505Z,34.07
2019-04-26T16:38:29.098Z,33.75
2019-04-26T16:41:03.325Z,33.87
2019-04-26T16:43:40.700Z,33.54
2019-04-26T16:46:20.090Z,33.78
2019-04-26T16:48:47.015Z,33.84
2019-04-26T16:51:23.333Z,33.79
2019-04-26T16:54:06.826Z,33.90
2019-04-26T16:56:33.652Z,33.94
2019-04-26T16:59:14.253Z,33.61
2019-04-26T17:01:47.182Z,33.77
2019-04-26T17:04:20.214Z,33.84
2019-04-26T17:06:53.175Z,33.88
2019-04-26T17:09:29.667Z,33.49
2019-04-26T17:12:02.533Z,33.69
2019-04-26T17:14:36.363Z,33.79
2019-04-26T17:17:10.840Z,33.88
2019-04-26T17:19:44.913Z,33.54
2019-04-26T17:22:18.290Z,33.77
2019-04-26T17:24:53.218Z,33.81
2019-04-26T17:27:26.751Z,33.88
2019-04-26T17:30:00.131Z,33.53
2019-04-26T17:32:35.036Z,33.70
2019-04-26T17:35:09.326Z,33.74
2019-04-26T17:37:42.702Z,33.84
2019-04-26T17:40:16.087Z,33.93
2019-04-26T17:42:51.139Z,33.95
2019-04-26T17:45:24.610Z,33.91
2019-04-26T17:47:57.984Z,33.94
2019-04-26T17:50:31.369Z,33.94
2019-04-26T17:53:06.507Z,33.95
2019-04-26T17:55:41.478Z,33.97
2019-04-26T17:58:17.790Z,34.03
2019-04-26T18:00:51.548Z,33.99
2019-04-26T18:03:26.218Z,34.03
2019-04-26T18:06:01.058Z,34.03
2019-04-26T18:08:41.077Z,34.04
2019-04-26T18:11:18.967Z,34.04
2019-04-26T18:13:47.224Z,33.78
2019-04-26T18:16:22.372Z,33.93
2019-04-26T18:18:56.144Z,33.77
2019-04-26T18:21:29.523Z,33.92
2019-04-26T18:24:02.976Z,33.93
2019-04-26T18:26:36.279Z,34.00
2019-04-26T18:29:09.565Z,33.77
2019-04-26T18:31:43.786Z,33.91
2019-04-26T18:34:17.241Z,33.60
2019-04-26T18:36:50.596Z,33.84
2019-04-26T18:39:26.472Z,33.90
2019-04-26T18:42:04.341Z,33.88
2019-04-26T18:44:36.810Z,33.52
2019-04-26T18:47:09.053Z,33.71
2019-04-26T18:49:43.578Z,33.46
2019-04-26T18:52:19.389Z,33.67
2019-04-26T18:54:52.531Z,33.77
2019-04-26T18:57:26.116Z,33.81
2019-04-26T18:59:59.421Z,33.90
2019-04-26T19:02:33.306Z,33.90
2019-04-26T19:05:07.922Z,33.91
2019-04-26T19:07:46.237Z,33.94
2019-04-26T19:10:18.011Z,33.51
2019-04-26T19:12:52.305Z,33.75
2019-04-26T19:15:25.710Z,33.82
2019-04-26T19:18:00.145Z,33.90
2019-04-26T19:20:34.299Z,33.91
2019-04-26T19:23:07.656Z,33.78
2019-04-26T19:25:41.438Z,33.84
2019-04-26T19:28:15.987Z,33.87
2019-04-26T19:30:51.490Z,33.92
2019-04-26T19:33:24.574Z,33.77
2019-04-26T19:35:57.877Z,33.88
2019-04-26T19:38:32.905Z,33.89
2019-04-26T19:41:06.347Z,34.00
2019-04-26T19:43:43.521Z,33.99
2019-04-26T19:46:17.075Z,34.00
2019-04-26T19:48:55.517Z,34.02
2019-04-26T19:51:27.069Z,34.07
2019-04-26T19:54:00.053Z,33.77
2019-04-26T19:56:33.703Z,33.87
2019-04-26T19:59:07.036Z,33.96
2019-04-26T20:01:41.966Z,33.98
2019-04-26T20:04:15.412Z,34.05
2019-04-26T20:06:52.421Z,34.06
2019-04-26T20:09:26.572Z,33.81
2019-04-26T20:12:02.335Z,33.99
2019-04-26T20:14:47.203Z,33.57
2019-04-26T20:17:13.130Z,33.81
2019-04-26T20:19:47.692Z,33.90
2019-04-26T20:22:28.105Z,33.98
2019-04-26T20:24:57.427Z,34.09
2019-04-26T20:27:32.221Z,34.17
2019-04-26T20:30:07.208Z,34.21
2019-04-26T20:32:44.366Z,34.28
2019-04-26T20:35:19.675Z,34.29
2019-04-26T20:37:56.204Z,34.29
2019-04-26T20:40:28.379Z,34.33
2019-04-26T20:43:05.702Z,34.18
2019-04-26T20:45:41.357Z,34.27
2019-04-26T20:48:11.818Z,34.34
2019-04-26T20:50:45.155Z,34.46
2019-04-26T20:53:18.465Z,34.49
2019-04-26T20:55:52.819Z,34.57
2019-04-26T20:58:26.315Z,34.57
2019-04-26T21:01:01.356Z,34.57
2019-04-26T21:03:41.922Z,34.62
2019-04-26T21:06:11.441Z,34.62
2019-04-26T21:08:44.972Z,34.67
2019-04-26T21:11:18.309Z,34.66
2019-04-26T21:13:51.994Z,34.71
2019-04-26T21:16:25.480Z,34.72
2019-04-26T21:18:58.766Z,34.75
2019-04-26T21:21:32.188Z,34.74
2019-04-26T21:24:06.218Z,34.83
2019-04-26T21:26:39.566Z,34.81
2019-04-26T21:29:20.069Z,34.84
2019-04-26T21:31:49.615Z,34.72
2019-04-26T21:34:23.092Z,34.82
2019-04-26T21:36:56.612Z,34.85
2019-04-26T21:39:29.991Z,34.85
2019-04-26T21:42:03.625Z,34.86
2019-04-26T21:44:36.995Z,34.95
2019-04-26T21:47:10.405Z,34.94
2019-04-26T21:49:44.831Z,34.95
2019-04-26T21:52:21.425Z,34.66
2019-04-26T21:54:56.381Z,34.92
2019-04-26T21:57:28.572Z,34.97
2019-04-26T22:00:04.011Z,34.99
2019-04-26T22:02:38.558Z,34.99
2019-04-26T22:05:14.897Z,35.05
2019-04-26T22:07:47.814Z,34.60
2019-04-26T22:10:21.260Z,34.88
2019-04-26T22:12:54.569Z,34.89
2019-04-26T22:15:29.641Z,34.97
2019-04-26T22:18:03.281Z,34.96
2019-04-26T22:20:37.747Z,35.00
2019-04-26T22:23:16.428Z,35.05
2019-04-26T22:25:48.870Z,35.09
2019-04-26T22:28:23.550Z,35.08
2019-04-26T22:30:59.357Z,34.71
2019-04-26T22:33:34.220Z,34.90
2019-04-26T22:36:07.722Z,34.95
2019-04-26T22:38:42.488Z,35.02
2019-04-26T22:41:16.519Z,35.12
2019-04-26T22:43:54.079Z,35.18
2019-04-26T22:46:29.691Z,35.18
2019-04-26T22:49:03.716Z,35.21
2019-04-26T22:51:37.195Z,35.24
2019-04-26T22:54:10.742Z,35.29
2019-04-26T22:56:46.045Z,34.83
2019-04-26T22:59:19.262Z,35.07
2019-04-26T23:01:53.657Z,35.15
2019-04-26T23:04:27.098Z,35.16
2019-04-26T23:07:00.480Z,35.27
2019-04-26T23:09:33.778Z,35.25
2019-04-26T23:12:07.253Z,35.30
2019-04-26T23:14:40.635Z,35.32
2019-04-26T23:17:14.198Z,35.34
2019-04-26T23:19:49.399Z,35.37
2019-04-26T23:22:26.334Z,35.42
2019-04-26T23:24:58.127Z,35.45
2019-04-26T23:27:33.333Z,35.37
2019-04-26T23:30:06.836Z,35.45
2019-04-26T23:32:40.354Z,35.45
2019-04-26T23:35:13.843Z,35.46
2019-04-26T23:37:47.646Z,35.55
2019-04-26T23:40:25.744Z,35.57
2019-04-26T23:42:56.215Z,35.58
2019-04-26T23:45:29.534Z,35.38
2019-04-26T23:48:03.605Z,35.51
2019-04-26T23:50:37.074Z,35.22
2019-04-26T23:53:10.434Z,35.46
2019-04-26T23:55:45.215Z,35.51
2019-04-26T23:58:18.793Z,35.56
